Terminal Aerodrome Forecast
Issued by NWS

Home | Current Version | Previous Version | Text Only | Print | Product List | Glossary On
Versions: 1 2 3 4 5 6 7 8 9 10 11 12 13 14 15
001
FTUS42 KTAE 240111 AAB
TAFDHN
TAF AMD
KDHN 240111Z 2401/2424 02005KT P6SM VCTS SCT050CB
      TEMPO 2401/2403 4SM TSRA BKN035CB
     FM240300 06004KT P6SM SCT040=

USA.gov is the U.S. government's official web portal to all federal, state and local government web resources and services.